sensor_id;sensor_type;location;lat;lon;timestamp;P1;durP1;ratioP1;P2;durP2;ratioP2
18853;SDS011;9556;49.374;19.446;2023-01-15T00:00:59;93.90;;;49.97;;
18853;SDS011;9556;49.374;19.446;2023-01-15T00:03:26;88.20;;;49.40;;
18853;SDS011;9556;49.374;19.446;2023-01-15T00:05:53;100.68;;;54.22;;
18853;SDS011;9556;49.374;19.446;2023-01-15T00:08:21;105.13;;;56.72;;
18853;SDS011;9556;49.374;19.446;2023-01-15T00:10:48;112.45;;;59.85;;
18853;SDS011;9556;49.374;19.446;2023-01-15T00:13:15;111.10;;;59.65;;
18853;SDS011;9556;49.374;19.446;2023-01-15T00:15:42;115.38;;;60.22;;
18853;SDS011;9556;49.374;19.446;2023-01-15T00:18:11;117.20;;;61.92;;
18853;SDS011;9556;49.374;19.446;2023-01-15T00:20:38;109.47;;;60.78;;
18853;SDS011;9556;49.374;19.446;2023-01-15T00:23:05;115.03;;;63.53;;
18853;SDS011;9556;49.374;19.446;2023-01-15T00:25:54;116.03;;;61.90;;
18853;SDS011;9556;49.374;19.446;2023-01-15T00:28:51;117.78;;;63.30;;
18853;SDS011;9556;49.374;19.446;2023-01-15T00:31:18;116.15;;;63.10;;
18853;SDS011;9556;49.374;19.446;2023-01-15T00:33:46;109.85;;;61.13;;
18853;SDS011;9556;49.374;19.446;2023-01-15T00:36:13;113.70;;;62.50;;
18853;SDS011;9556;49.374;19.446;2023-01-15T00:38:41;113.85;;;61.90;;
18853;SDS011;9556;49.374;19.446;2023-01-15T00:41:08;116.32;;;64.63;;
18853;SDS011;9556;49.374;19.446;2023-01-15T00:43:35;116.47;;;62.65;;
18853;SDS011;9556;49.374;19.446;2023-01-15T00:46:02;117.60;;;64.80;;
18853;SDS011;9556;49.374;19.446;2023-01-15T00:48:30;117.20;;;64.13;;
18853;SDS011;9556;49.374;19.446;2023-01-15T00:50:58;113.50;;;60.83;;
18853;SDS011;9556;49.374;19.446;2023-01-15T00:53:25;106.05;;;57.22;;
18853;SDS011;9556;49.374;19.446;2023-01-15T00:55:53;105.57;;;56.42;;
18853;SDS011;9556;49.374;19.446;2023-01-15T00:58:20;108.35;;;55.65;;
18853;SDS011;9556;49.374;19.446;2023-01-15T01:00:51;103.40;;;54.97;;
18853;SDS011;9556;49.374;19.446;2023-01-15T01:03:19;103.43;;;55.72;;
18853;SDS011;9556;49.374;19.446;2023-01-15T01:05:46;119.82;;;65.68;;
18853;SDS011;9556;49.374;19.446;2023-01-15T01:08:15;117.97;;;64.35;;
18853;SDS011;9556;49.374;19.446;2023-01-15T01:10:42;120.57;;;66.22;;
18853;SDS011;9556;49.374;19.446;2023-01-15T01:13:09;119.13;;;65.85;;
18853;SDS011;9556;49.374;19.446;2023-01-15T01:15:37;131.20;;;70.82;;
18853;SDS011;9556;49.374;19.446;2023-01-15T01:18:04;130.05;;;68.55;;
18853;SDS011;9556;49.374;19.446;2023-01-15T01:20:32;130.52;;;70.45;;
18853;SDS011;9556;49.374;19.446;2023-01-15T01:22:59;124.38;;;68.07;;
18853;SDS011;9556;49.374;19.446;2023-01-15T01:25:28;125.13;;;69.03;;
18853;SDS011;9556;49.374;19.446;2023-01-15T01:27:55;128.10;;;70.82;;
18853;SDS011;9556;49.374;19.446;2023-01-15T01:30:22;130.45;;;70.78;;
18853;SDS011;9556;49.374;19.446;2023-01-15T01:32:49;124.55;;;70.57;;
18853;SDS011;9556;49.374;19.446;2023-01-15T01:35:16;128.73;;;72.05;;
18853;SDS011;9556;49.374;19.446;2023-01-15T01:37:47;126.65;;;68.65;;
18853;SDS011;9556;49.374;19.446;2023-01-15T01:40:15;133.77;;;75.45;;
18853;SDS011;9556;49.374;19.446;2023-01-15T01:42:43;130.88;;;72.38;;
18853;SDS011;9556;49.374;19.446;2023-01-15T01:45:15;134.32;;;74.70;;
18853;SDS011;9556;49.374;19.446;2023-01-15T01:47:44;133.57;;;73.68;;
18853;SDS011;9556;49.374;19.446;2023-01-15T01:50:12;128.05;;;68.10;;
18853;SDS011;9556;49.374;19.446;2023-01-15T01:52:41;124.82;;;67.30;;
18853;SDS011;9556;49.374;19.446;2023-01-15T01:55:09;126.50;;;67.57;;
18853;SDS011;9556;49.374;19.446;2023-01-15T01:57:37;119.43;;;66.20;;
18853;SDS011;9556;49.374;19.446;2023-01-15T02:00:08;106.45;;;61.00;;
18853;SDS011;9556;49.374;19.446;2023-01-15T02:02:36;116.30;;;61.58;;
18853;SDS011;9556;49.374;19.446;2023-01-15T02:05:04;125.32;;;70.93;;
18853;SDS011;9556;49.374;19.446;2023-01-15T02:07:33;132.75;;;74.82;;
18853;SDS011;9556;49.374;19.446;2023-01-15T02:10:01;129.82;;;72.95;;
18853;SDS011;9556;49.374;19.446;2023-01-15T02:12:30;135.85;;;75.93;;
18853;SDS011;9556;49.374;19.446;2023-01-15T02:15:02;136.30;;;75.10;;
18853;SDS011;9556;49.374;19.446;2023-01-15T02:17:32;128.30;;;71.47;;
18853;SDS011;9556;49.374;19.446;2023-01-15T02:20:05;135.55;;;74.60;;
18853;SDS011;9556;49.374;19.446;2023-01-15T02:22:40;144.15;;;76.22;;
18853;SDS011;9556;49.374;19.446;2023-01-15T02:25:11;137.00;;;76.43;;
18853;SDS011;9556;49.374;19.446;2023-01-15T02:27:42;140.32;;;75.82;;
18853;SDS011;9556;49.374;19.446;2023-01-15T02:30:11;134.20;;;77.35;;
18853;SDS011;9556;49.374;19.446;2023-01-15T02:32:43;140.20;;;78.28;;
18853;SDS011;9556;49.374;19.446;2023-01-15T02:35:14;135.90;;;79.18;;
18853;SDS011;9556;49.374;19.446;2023-01-15T02:37:45;142.75;;;79.93;;
18853;SDS011;9556;49.374;19.446;2023-01-15T02:40:12;144.32;;;80.80;;
18853;SDS011;9556;49.374;19.446;2023-01-15T02:42:42;148.48;;;82.68;;
18853;SDS011;9556;49.374;19.446;2023-01-15T02:45:10;144.18;;;81.93;;
18853;SDS011;9556;49.374;19.446;2023-01-15T02:47:39;141.50;;;79.78;;
18853;SDS011;9556;49.374;19.446;2023-01-15T02:50:08;132.55;;;73.25;;
18853;SDS011;9556;49.374;19.446;2023-01-15T02:52:37;117.28;;;65.65;;
18853;SDS011;9556;49.374;19.446;2023-01-15T02:55:06;123.30;;;67.30;;
18853;SDS011;9556;49.374;19.446;2023-01-15T02:57:34;124.20;;;68.65;;
18853;SDS011;9556;49.374;19.446;2023-01-15T03:00:07;127.85;;;70.00;;
18853;SDS011;9556;49.374;19.446;2023-01-15T03:02:37;121.55;;;67.32;;
18853;SDS011;9556;49.374;19.446;2023-01-15T03:05:06;135.57;;;76.65;;
18853;SDS011;9556;49.374;19.446;2023-01-15T03:07:35;141.55;;;78.55;;
18853;SDS011;9556;49.374;19.446;2023-01-15T03:10:03;143.55;;;80.07;;
18853;SDS011;9556;49.374;19.446;2023-01-15T03:12:33;136.75;;;75.32;;
18853;SDS011;9556;49.374;19.446;2023-01-15T03:15:25;145.05;;;80.72;;
18853;SDS011;9556;49.374;19.446;2023-01-15T03:18:07;148.77;;;83.15;;
18853;SDS011;9556;49.374;19.446;2023-01-15T03:20:37;143.38;;;82.55;;
18853;SDS011;9556;49.374;19.446;2023-01-15T03:23:09;145.05;;;84.30;;
18853;SDS011;9556;49.374;19.446;2023-01-15T03:25:38;151.05;;;84.20;;
18853;SDS011;9556;49.374;19.446;2023-01-15T03:28:07;157.20;;;86.97;;
18853;SDS011;9556;49.374;19.446;2023-01-15T03:30:37;159.60;;;87.53;;
18853;SDS011;9556;49.374;19.446;2023-01-15T03:33:04;157.07;;;86.65;;
18853;SDS011;9556;49.374;19.446;2023-01-15T03:35:41;151.82;;;87.20;;
18853;SDS011;9556;49.374;19.446;2023-01-15T03:38:10;156.52;;;87.82;;
18853;SDS011;9556;49.374;19.446;2023-01-15T03:40:41;155.52;;;86.63;;
18853;SDS011;9556;49.374;19.446;2023-01-15T03:43:09;152.25;;;86.05;;
18853;SDS011;9556;49.374;19.446;2023-01-15T03:45:58;153.90;;;85.88;;
18853;SDS011;9556;49.374;19.446;2023-01-15T03:48:30;148.25;;;85.30;;
18853;SDS011;9556;49.374;19.446;2023-01-15T03:51:01;140.98;;;78.45;;
18853;SDS011;9556;49.374;19.446;2023-01-15T03:53:30;136.75;;;73.47;;
18853;SDS011;9556;49.374;19.446;2023-01-15T03:56:00;134.68;;;74.60;;
18853;SDS011;9556;49.374;19.446;2023-01-15T03:58:31;130.82;;;74.80;;
18853;SDS011;9556;49.374;19.446;2023-01-15T04:01:03;124.43;;;70.43;;
18853;SDS011;9556;49.374;19.446;2023-01-15T04:03:33;132.68;;;73.78;;
18853;SDS011;9556;49.374;19.446;2023-01-15T04:06:02;141.90;;;82.90;;
18853;SDS011;9556;49.374;19.446;2023-01-15T04:08:30;142.35;;;81.00;;
18853;SDS011;9556;49.374;19.446;2023-01-15T04:10:59;151.23;;;84.78;;
18853;SDS011;9556;49.374;19.446;2023-01-15T04:13:27;155.85;;;86.18;;
18853;SDS011;9556;49.374;19.446;2023-01-15T04:15:54;147.88;;;81.93;;
18853;SDS011;9556;49.374;19.446;2023-01-15T04:18:22;153.70;;;87.65;;
18853;SDS011;9556;49.374;19.446;2023-01-15T04:20:50;149.90;;;84.85;;
18853;SDS011;9556;49.374;19.446;2023-01-15T04:23:18;150.70;;;83.38;;
18853;SDS011;9556;49.374;19.446;2023-01-15T04:25:46;150.27;;;85.03;;
18853;SDS011;9556;49.374;19.446;2023-01-15T04:28:13;150.63;;;85.72;;
18853;SDS011;9556;49.374;19.446;2023-01-15T04:30:40;151.48;;;85.05;;
18853;SDS011;9556;49.374;19.446;2023-01-15T04:33:08;148.77;;;83.63;;
18853;SDS011;9556;49.374;19.446;2023-01-15T04:35:37;146.60;;;80.68;;
18853;SDS011;9556;49.374;19.446;2023-01-15T04:38:04;153.52;;;86.75;;
18853;SDS011;9556;49.374;19.446;2023-01-15T04:40:31;153.07;;;86.75;;
18853;SDS011;9556;49.374;19.446;2023-01-15T04:43:16;154.40;;;84.80;;
18853;SDS011;9556;49.374;19.446;2023-01-15T04:46:00;153.25;;;87.10;;
18853;SDS011;9556;49.374;19.446;2023-01-15T04:48:28;148.32;;;83.55;;
18853;SDS011;9556;49.374;19.446;2023-01-15T04:50:56;135.07;;;74.88;;
18853;SDS011;9556;49.374;19.446;2023-01-15T04:53:27;138.23;;;75.50;;
18853;SDS011;9556;49.374;19.446;2023-01-15T04:55:58;133.10;;;73.75;;
18853;SDS011;9556;49.374;19.446;2023-01-15T04:58:25;137.40;;;72.15;;
18853;SDS011;9556;49.374;19.446;2023-01-15T05:00:53;141.18;;;74.20;;
18853;SDS011;9556;49.374;19.446;2023-01-15T05:03:20;149.95;;;79.97;;
18853;SDS011;9556;49.374;19.446;2023-01-15T05:05:47;154.27;;;86.13;;
18853;SDS011;9556;49.374;19.446;2023-01-15T05:08:16;160.32;;;87.32;;
18853;SDS011;9556;49.374;19.446;2023-01-15T05:10:43;165.02;;;89.15;;
18853;SDS011;9556;49.374;19.446;2023-01-15T05:13:10;166.15;;;90.82;;
18853;SDS011;9556;49.374;19.446;2023-01-15T05:15:38;168.85;;;91.55;;
18853;SDS011;9556;49.374;19.446;2023-01-15T05:18:06;164.27;;;89.80;;
18853;SDS011;9556;49.374;19.446;2023-01-15T05:20:38;167.15;;;92.53;;
18853;SDS011;9556;49.374;19.446;2023-01-15T05:23:06;161.35;;;91.13;;
18853;SDS011;9556;49.374;19.446;2023-01-15T05:25:36;170.52;;;94.25;;
18853;SDS011;9556;49.374;19.446;2023-01-15T05:28:03;170.38;;;95.05;;
18853;SDS011;9556;49.374;19.446;2023-01-15T05:30:30;163.15;;;91.10;;
18853;SDS011;9556;49.374;19.446;2023-01-15T05:32:57;167.90;;;94.37;;
18853;SDS011;9556;49.374;19.446;2023-01-15T05:35:25;166.82;;;92.97;;
18853;SDS011;9556;49.374;19.446;2023-01-15T05:37:52;171.00;;;92.75;;
18853;SDS011;9556;49.374;19.446;2023-01-15T05:40:19;171.38;;;97.50;;
18853;SDS011;9556;49.374;19.446;2023-01-15T05:42:48;174.95;;;97.38;;
18853;SDS011;9556;49.374;19.446;2023-01-15T05:45:16;172.93;;;96.75;;
18853;SDS011;9556;49.374;19.446;2023-01-15T05:47:43;172.75;;;96.50;;
18853;SDS011;9556;49.374;19.446;2023-01-15T05:50:11;168.20;;;92.32;;
18853;SDS011;9556;49.374;19.446;2023-01-15T05:52:38;164.85;;;89.15;;
18853;SDS011;9556;49.374;19.446;2023-01-15T05:55:05;155.77;;;86.23;;
18853;SDS011;9556;49.374;19.446;2023-01-15T05:57:32;159.57;;;89.35;;
18853;SDS011;9556;49.374;19.446;2023-01-15T06:00:01;159.93;;;90.15;;
18853;SDS011;9556;49.374;19.446;2023-01-15T06:02:28;159.10;;;87.15;;
18853;SDS011;9556;49.374;19.446;2023-01-15T06:04:55;169.80;;;96.63;;
18853;SDS011;9556;49.374;19.446;2023-01-15T06:07:23;175.63;;;97.53;;
18853;SDS011;9556;49.374;19.446;2023-01-15T06:09:50;173.90;;;96.50;;
18853;SDS011;9556;49.374;19.446;2023-01-15T06:12:17;178.65;;;95.35;;
18853;SDS011;9556;49.374;19.446;2023-01-15T06:14:44;169.23;;;96.05;;
18853;SDS011;9556;49.374;19.446;2023-01-15T06:17:13;171.43;;;95.57;;
18853;SDS011;9556;49.374;19.446;2023-01-15T06:19:40;176.05;;;97.95;;
18853;SDS011;9556;49.374;19.446;2023-01-15T06:22:07;179.63;;;98.47;;
18853;SDS011;9556;49.374;19.446;2023-01-15T06:24:34;174.90;;;94.50;;
18853;SDS011;9556;49.374;19.446;2023-01-15T06:27:01;172.10;;;96.25;;
18853;SDS011;9556;49.374;19.446;2023-01-15T06:29:29;178.25;;;98.95;;
18853;SDS011;9556;49.374;19.446;2023-01-15T06:31:56;175.32;;;96.75;;
18853;SDS011;9556;49.374;19.446;2023-01-15T06:34:24;171.32;;;94.50;;
18853;SDS011;9556;49.374;19.446;2023-01-15T06:36:51;160.60;;;88.32;;
18853;SDS011;9556;49.374;19.446;2023-01-15T06:39:19;170.57;;;92.20;;
18853;SDS011;9556;49.374;19.446;2023-01-15T06:41:46;161.15;;;87.13;;
18853;SDS011;9556;49.374;19.446;2023-01-15T06:44:31;156.23;;;88.70;;
18853;SDS011;9556;49.374;19.446;2023-01-15T06:47:16;159.27;;;87.68;;
18853;SDS011;9556;49.374;19.446;2023-01-15T06:49:48;145.05;;;79.05;;
18853;SDS011;9556;49.374;19.446;2023-01-15T06:52:16;146.02;;;81.60;;
18853;SDS011;9556;49.374;19.446;2023-01-15T06:54:43;139.88;;;77.20;;
18853;SDS011;9556;49.374;19.446;2023-01-15T06:57:10;133.43;;;75.25;;
18853;SDS011;9556;49.374;19.446;2023-01-15T06:59:37;137.02;;;75.63;;
18853;SDS011;9556;49.374;19.446;2023-01-15T07:02:04;132.07;;;72.60;;
18853;SDS011;9556;49.374;19.446;2023-01-15T07:04:32;130.23;;;70.60;;
18853;SDS011;9556;49.374;19.446;2023-01-15T07:07:00;135.98;;;73.18;;
18853;SDS011;9556;49.374;19.446;2023-01-15T07:09:27;133.95;;;72.65;;
18853;SDS011;9556;49.374;19.446;2023-01-15T07:11:55;137.90;;;74.35;;
18853;SDS011;9556;49.374;19.446;2023-01-15T07:14:23;133.70;;;74.43;;
18853;SDS011;9556;49.374;19.446;2023-01-15T07:16:52;132.05;;;70.05;;
18853;SDS011;9556;49.374;19.446;2023-01-15T07:19:19;134.38;;;73.05;;
18853;SDS011;9556;49.374;19.446;2023-01-15T07:21:46;132.55;;;69.43;;
18853;SDS011;9556;49.374;19.446;2023-01-15T07:24:15;131.05;;;68.43;;
18853;SDS011;9556;49.374;19.446;2023-01-15T07:26:42;131.33;;;67.77;;
18853;SDS011;9556;49.374;19.446;2023-01-15T07:29:10;123.27;;;65.53;;
18853;SDS011;9556;49.374;19.446;2023-01-15T07:31:37;114.97;;;62.67;;
18853;SDS011;9556;49.374;19.446;2023-01-15T07:34:05;111.97;;;59.15;;
18853;SDS011;9556;49.374;19.446;2023-01-15T07:36:33;123.07;;;63.65;;
18853;SDS011;9556;49.374;19.446;2023-01-15T07:39:01;112.60;;;59.25;;
18853;SDS011;9556;49.374;19.446;2023-01-15T07:41:30;109.35;;;58.53;;
18853;SDS011;9556;49.374;19.446;2023-01-15T07:44:15;118.75;;;59.20;;
18853;SDS011;9556;49.374;19.446;2023-01-15T07:47:00;116.75;;;60.00;;
18853;SDS011;9556;49.374;19.446;2023-01-15T07:49:46;105.35;;;56.15;;
18853;SDS011;9556;49.374;19.446;2023-01-15T07:52:14;101.25;;;54.45;;
18853;SDS011;9556;49.374;19.446;2023-01-15T07:54:41;95.25;;;52.15;;
18853;SDS011;9556;49.374;19.446;2023-01-15T07:57:10;100.57;;;49.13;;
18853;SDS011;9556;49.374;19.446;2023-01-15T07:59:37;90.03;;;48.97;;
18853;SDS011;9556;49.374;19.446;2023-01-15T08:02:05;93.13;;;48.90;;
18853;SDS011;9556;49.374;19.446;2023-01-15T08:04:32;100.27;;;51.17;;
18853;SDS011;9556;49.374;19.446;2023-01-15T08:06:59;93.85;;;51.25;;
18853;SDS011;9556;49.374;19.446;2023-01-15T08:09:27;94.00;;;50.45;;
18853;SDS011;9556;49.374;19.446;2023-01-15T08:11:54;96.97;;;50.50;;
18853;SDS011;9556;49.374;19.446;2023-01-15T08:14:40;92.10;;;51.05;;
18853;SDS011;9556;49.374;19.446;2023-01-15T08:17:25;97.32;;;51.75;;
18853;SDS011;9556;49.374;19.446;2023-01-15T08:19:52;98.05;;;53.88;;
18853;SDS011;9556;49.374;19.446;2023-01-15T08:22:19;91.95;;;51.10;;
18853;SDS011;9556;49.374;19.446;2023-01-15T08:24:47;97.50;;;51.10;;
18853;SDS011;9556;49.374;19.446;2023-01-15T08:27:14;94.68;;;50.78;;
18853;SDS011;9556;49.374;19.446;2023-01-15T08:29:42;93.95;;;50.75;;
18853;SDS011;9556;49.374;19.446;2023-01-15T08:32:10;91.07;;;50.40;;
18853;SDS011;9556;49.374;19.446;2023-01-15T08:34:37;91.40;;;48.17;;
18853;SDS011;9556;49.374;19.446;2023-01-15T08:37:04;90.07;;;48.38;;
18853;SDS011;9556;49.374;19.446;2023-01-15T08:39:31;86.25;;;48.50;;
18853;SDS011;9556;49.374;19.446;2023-01-15T08:41:59;86.60;;;47.25;;
18853;SDS011;9556;49.374;19.446;2023-01-15T08:44:26;88.10;;;48.75;;
18853;SDS011;9556;49.374;19.446;2023-01-15T08:46:54;97.15;;;47.42;;
18853;SDS011;9556;49.374;19.446;2023-01-15T08:49:21;89.45;;;46.90;;
18853;SDS011;9556;49.374;19.446;2023-01-15T08:51:49;84.72;;;46.03;;
18853;SDS011;9556;49.374;19.446;2023-01-15T08:54:17;76.72;;;43.92;;
18853;SDS011;9556;49.374;19.446;2023-01-15T08:56:45;79.00;;;42.23;;
18853;SDS011;9556;49.374;19.446;2023-01-15T08:59:12;81.78;;;43.53;;
18853;SDS011;9556;49.374;19.446;2023-01-15T09:01:39;80.07;;;42.10;;
18853;SDS011;9556;49.374;19.446;2023-01-15T09:04:08;81.82;;;42.40;;
18853;SDS011;9556;49.374;19.446;2023-01-15T09:06:38;75.90;;;40.73;;
18853;SDS011;9556;49.374;19.446;2023-01-15T09:09:05;72.28;;;39.97;;
18853;SDS011;9556;49.374;19.446;2023-01-15T09:11:32;69.70;;;39.07;;
18853;SDS011;9556;49.374;19.446;2023-01-15T09:14:00;77.67;;;40.90;;
18853;SDS011;9556;49.374;19.446;2023-01-15T09:16:30;74.07;;;39.30;;
18853;SDS011;9556;49.374;19.446;2023-01-15T09:18:58;74.78;;;39.58;;
18853;SDS011;9556;49.374;19.446;2023-01-15T09:21:27;66.00;;;38.37;;
18853;SDS011;9556;49.374;19.446;2023-01-15T09:23:54;66.80;;;37.15;;
18853;SDS011;9556;49.374;19.446;2023-01-15T09:26:26;83.67;;;40.10;;
18853;SDS011;9556;49.374;19.446;2023-01-15T09:28:53;86.77;;;40.10;;
18853;SDS011;9556;49.374;19.446;2023-01-15T09:31:21;87.50;;;40.47;;
18853;SDS011;9556;49.374;19.446;2023-01-15T09:33:48;78.80;;;39.22;;
18853;SDS011;9556;49.374;19.446;2023-01-15T09:36:15;70.97;;;38.55;;
18853;SDS011;9556;49.374;19.446;2023-01-15T09:38:44;69.82;;;35.85;;
18853;SDS011;9556;49.374;19.446;2023-01-15T09:41:12;69.00;;;34.58;;
18853;SDS011;9556;49.374;19.446;2023-01-15T09:44:02;66.67;;;35.07;;
18853;SDS011;9556;49.374;19.446;2023-01-15T09:46:33;64.03;;;34.10;;
18853;SDS011;9556;49.374;19.446;2023-01-15T09:49:03;63.63;;;32.93;;
18853;SDS011;9556;49.374;19.446;2023-01-15T09:51:36;59.80;;;31.38;;
18853;SDS011;9556;49.374;19.446;2023-01-15T09:54:10;57.15;;;29.88;;
18853;SDS011;9556;49.374;19.446;2023-01-15T09:56:40;65.27;;;33.33;;
18853;SDS011;9556;49.374;19.446;2023-01-15T09:59:12;58.70;;;30.47;;
18853;SDS011;9556;49.374;19.446;2023-01-15T10:01:40;55.33;;;29.73;;
18853;SDS011;9556;49.374;19.446;2023-01-15T10:04:11;52.55;;;29.05;;
18853;SDS011;9556;49.374;19.446;2023-01-15T10:06:42;53.78;;;29.40;;
18853;SDS011;9556;49.374;19.446;2023-01-15T10:09:13;54.63;;;29.48;;
18853;SDS011;9556;49.374;19.446;2023-01-15T10:11:42;53.17;;;28.42;;
18853;SDS011;9556;49.374;19.446;2023-01-15T10:14:32;48.20;;;27.67;;
18853;SDS011;9556;49.374;19.446;2023-01-15T10:17:03;52.63;;;28.23;;
18853;SDS011;9556;49.374;19.446;2023-01-15T10:19:31;51.35;;;27.90;;
18853;SDS011;9556;49.374;19.446;2023-01-15T10:21:59;49.00;;;28.15;;
18853;SDS011;9556;49.374;19.446;2023-01-15T10:24:33;49.67;;;27.80;;
18853;SDS011;9556;49.374;19.446;2023-01-15T10:27:04;45.95;;;27.10;;
18853;SDS011;9556;49.374;19.446;2023-01-15T10:29:41;46.80;;;25.08;;
18853;SDS011;9556;49.374;19.446;2023-01-15T10:32:11;48.10;;;27.05;;
18853;SDS011;9556;49.374;19.446;2023-01-15T10:35:05;42.53;;;24.85;;
18853;SDS011;9556;49.374;19.446;2023-01-15T10:37:38;48.20;;;25.13;;
18853;SDS011;9556;49.374;19.446;2023-01-15T10:43:02;45.80;;;25.48;;
18853;SDS011;9556;49.374;19.446;2023-01-15T10:45:32;44.10;;;24.17;;
18853;SDS011;9556;49.374;19.446;2023-01-15T10:48:04;42.05;;;23.65;;
18853;SDS011;9556;49.374;19.446;2023-01-15T10:50:35;41.97;;;23.27;;
18853;SDS011;9556;49.374;19.446;2023-01-15T10:53:03;36.40;;;21.83;;
18853;SDS011;9556;49.374;19.446;2023-01-15T10:55:34;36.67;;;21.63;;
18853;SDS011;9556;49.374;19.446;2023-01-15T10:58:06;34.05;;;20.85;;
18853;SDS011;9556;49.374;19.446;2023-01-15T11:00:35;39.03;;;21.27;;
18853;SDS011;9556;49.374;19.446;2023-01-15T11:03:03;37.42;;;20.33;;
18853;SDS011;9556;49.374;19.446;2023-01-15T11:05:32;37.30;;;20.88;;
18853;SDS011;9556;49.374;19.446;2023-01-15T11:08:01;37.40;;;21.55;;
18853;SDS011;9556;49.374;19.446;2023-01-15T11:10:29;36.70;;;20.60;;
18853;SDS011;9556;49.374;19.446;2023-01-15T11:12:58;34.88;;;19.75;;
18853;SDS011;9556;49.374;19.446;2023-01-15T11:15:46;34.42;;;19.20;;
18853;SDS011;9556;49.374;19.446;2023-01-15T11:18:32;35.55;;;19.08;;
18853;SDS011;9556;49.374;19.446;2023-01-15T11:21:18;32.72;;;19.27;;
18853;SDS011;9556;49.374;19.446;2023-01-15T11:23:47;31.77;;;18.30;;
18853;SDS011;9556;49.374;19.446;2023-01-15T11:26:18;33.55;;;17.92;;
18853;SDS011;9556;49.374;19.446;2023-01-15T11:28:47;32.70;;;18.13;;
18853;SDS011;9556;49.374;19.446;2023-01-15T11:31:16;28.75;;;17.23;;
18853;SDS011;9556;49.374;19.446;2023-01-15T11:33:44;32.00;;;17.58;;
18853;SDS011;9556;49.374;19.446;2023-01-15T11:36:21;35.15;;;17.23;;
18853;SDS011;9556;49.374;19.446;2023-01-15T11:38:48;27.80;;;17.23;;
18853;SDS011;9556;49.374;19.446;2023-01-15T11:41:18;27.25;;;16.08;;
18853;SDS011;9556;49.374;19.446;2023-01-15T11:43:52;31.05;;;16.65;;
18853;SDS011;9556;49.374;19.446;2023-01-15T11:46:38;29.95;;;16.38;;
18853;SDS011;9556;49.374;19.446;2023-01-15T11:49:26;30.17;;;15.67;;
18853;SDS011;9556;49.374;19.446;2023-01-15T11:52:12;26.42;;;15.43;;
18853;SDS011;9556;49.374;19.446;2023-01-15T11:54:40;23.25;;;9.85;;
18853;SDS011;9556;49.374;19.446;2023-01-15T11:57:07;23.20;;;9.03;;
18853;SDS011;9556;49.374;19.446;2023-01-15T11:59:35;21.75;;;10.10;;
18853;SDS011;9556;49.374;19.446;2023-01-15T12:02:09;26.15;;;11.00;;
18853;SDS011;9556;49.374;19.446;2023-01-15T12:04:44;18.70;;;11.68;;
18853;SDS011;9556;49.374;19.446;2023-01-15T12:07:15;24.75;;;13.40;;
18853;SDS011;9556;49.374;19.446;2023-01-15T12:12:26;22.50;;;12.83;;
18853;SDS011;9556;49.374;19.446;2023-01-15T12:15:01;23.50;;;13.93;;
18853;SDS011;9556;49.374;19.446;2023-01-15T12:17:40;28.23;;;12.53;;
18853;SDS011;9556;49.374;19.446;2023-01-15T12:20:15;25.23;;;12.52;;
18853;SDS011;9556;49.374;19.446;2023-01-15T12:22:48;20.88;;;12.90;;
18853;SDS011;9556;49.374;19.446;2023-01-15T12:25:22;22.23;;;12.25;;
18853;SDS011;9556;49.374;19.446;2023-01-15T12:27:55;24.25;;;11.80;;
18853;SDS011;9556;49.374;19.446;2023-01-15T12:30:24;18.05;;;11.45;;
18853;SDS011;9556;49.374;19.446;2023-01-15T12:32:59;19.70;;;11.27;;
18853;SDS011;9556;49.374;19.446;2023-01-15T12:35:28;19.95;;;11.20;;
18853;SDS011;9556;49.374;19.446;2023-01-15T12:37:57;18.77;;;11.17;;
18853;SDS011;9556;49.374;19.446;2023-01-15T12:40:27;21.47;;;10.77;;
18853;SDS011;9556;49.374;19.446;2023-01-15T12:42:55;17.33;;;10.75;;
18853;SDS011;9556;49.374;19.446;2023-01-15T12:45:40;19.08;;;10.48;;
18853;SDS011;9556;49.374;19.446;2023-01-15T12:48:13;19.23;;;11.02;;
18853;SDS011;9556;49.374;19.446;2023-01-15T12:50:41;16.67;;;10.07;;
18853;SDS011;9556;49.374;19.446;2023-01-15T12:53:11;14.87;;;9.00;;
18853;SDS011;9556;49.374;19.446;2023-01-15T12:55:42;16.10;;;8.93;;
18853;SDS011;9556;49.374;19.446;2023-01-15T12:58:16;15.47;;;8.73;;
18853;SDS011;9556;49.374;19.446;2023-01-15T13:00:45;15.88;;;8.52;;
18853;SDS011;9556;49.374;19.446;2023-01-15T13:03:16;14.10;;;7.88;;
18853;SDS011;9556;49.374;19.446;2023-01-15T13:05:46;15.75;;;9.20;;
18853;SDS011;9556;49.374;19.446;2023-01-15T13:08:16;16.02;;;8.65;;
18853;SDS011;9556;49.374;19.446;2023-01-15T13:10:47;21.05;;;8.95;;
18853;SDS011;9556;49.374;19.446;2023-01-15T13:13:15;14.77;;;8.75;;
18853;SDS011;9556;49.374;19.446;2023-01-15T13:15:51;12.57;;;8.35;;
18853;SDS011;9556;49.374;19.446;2023-01-15T13:18:24;14.95;;;9.05;;
18853;SDS011;9556;49.374;19.446;2023-01-15T13:20:52;14.30;;;8.52;;
18853;SDS011;9556;49.374;19.446;2023-01-15T13:23:26;17.27;;;8.10;;
18853;SDS011;9556;49.374;19.446;2023-01-15T13:26:01;17.17;;;8.38;;
18853;SDS011;9556;49.374;19.446;2023-01-15T13:28:36;15.85;;;8.95;;
18853;SDS011;9556;49.374;19.446;2023-01-15T13:31:12;13.57;;;7.85;;
18853;SDS011;9556;49.374;19.446;2023-01-15T13:33:42;14.20;;;7.78;;
18853;SDS011;9556;49.374;19.446;2023-01-15T13:36:11;13.13;;;7.70;;
18853;SDS011;9556;49.374;19.446;2023-01-15T13:38:40;12.70;;;7.50;;
18853;SDS011;9556;49.374;19.446;2023-01-15T13:41:08;13.25;;;8.07;;
18853;SDS011;9556;49.374;19.446;2023-01-15T13:43:35;12.80;;;7.65;;
18853;SDS011;9556;49.374;19.446;2023-01-15T13:46:04;11.85;;;7.50;;
18853;SDS011;9556;49.374;19.446;2023-01-15T13:48:33;11.65;;;7.25;;
18853;SDS011;9556;49.374;19.446;2023-01-15T13:51:03;12.27;;;7.30;;
18853;SDS011;9556;49.374;19.446;2023-01-15T13:53:31;14.55;;;7.10;;
18853;SDS011;9556;49.374;19.446;2023-01-15T13:56:00;13.57;;;7.18;;
18853;SDS011;9556;49.374;19.446;2023-01-15T13:58:30;9.18;;;6.20;;
18853;SDS011;9556;49.374;19.446;2023-01-15T14:01:01;11.43;;;6.97;;
18853;SDS011;9556;49.374;19.446;2023-01-15T14:03:29;8.98;;;5.95;;
18853;SDS011;9556;49.374;19.446;2023-01-15T14:05:57;12.93;;;6.22;;
18853;SDS011;9556;49.374;19.446;2023-01-15T14:08:27;9.60;;;6.47;;
18853;SDS011;9556;49.374;19.446;2023-01-15T14:10:54;10.45;;;5.95;;
18853;SDS011;9556;49.374;19.446;2023-01-15T14:13:37;10.98;;;5.97;;
18853;SDS011;9556;49.374;19.446;2023-01-15T14:16:12;13.02;;;6.68;;
18853;SDS011;9556;49.374;19.446;2023-01-15T14:18:45;9.88;;;6.30;;
18853;SDS011;9556;49.374;19.446;2023-01-15T14:21:28;10.05;;;6.47;;
18853;SDS011;9556;49.374;19.446;2023-01-15T14:24:01;11.57;;;6.50;;
18853;SDS011;9556;49.374;19.446;2023-01-15T14:26:33;9.68;;;5.97;;
18853;SDS011;9556;49.374;19.446;2023-01-15T14:29:06;9.68;;;5.90;;
18853;SDS011;9556;49.374;19.446;2023-01-15T14:31:41;11.52;;;6.18;;
18853;SDS011;9556;49.374;19.446;2023-01-15T14:34:15;8.88;;;5.95;;
18853;SDS011;9556;49.374;19.446;2023-01-15T14:36:50;8.68;;;5.88;;
18853;SDS011;9556;49.374;19.446;2023-01-15T14:39:23;12.18;;;5.90;;